createdAt,value
2018-08-01T00:01:32.436Z,67.09
2018-08-01T00:04:01.287Z,67.26
2018-08-01T00:06:30.075Z,67.17
2018-08-01T00:08:59.172Z,66.96
2018-08-01T00:11:28.439Z,67.25
2018-08-01T00:13:57.563Z,67.67
2018-08-01T00:16:27.117Z,67.70
2018-08-01T00:18:56.959Z,67.25
2018-08-01T00:21:25.716Z,67.13
2018-08-01T00:23:54.521Z,67.20
2018-08-01T00:26:23.397Z,67.20
2018-08-01T00:28:52.148Z,67.21
2018-08-01T00:31:21.046Z,67.54
2018-08-01T00:33:49.795Z,67.73
2018-08-01T00:36:18.540Z,67.98
2018-08-01T00:38:47.203Z,68.23
2018-08-01T00:41:16.059Z,68.54
2018-08-01T00:43:44.765Z,68.76
2018-08-01T00:46:13.637Z,68.92
2018-08-01T00:48:42.730Z,68.81
2018-08-01T00:51:11.480Z,69.09
2018-08-01T00:53:40.243Z,69.02
2018-08-01T00:56:09.036Z,69.05
2018-08-01T00:58:37.851Z,68.81
2018-08-01T01:01:06.631Z,69.06
2018-08-01T01:03:35.407Z,69.01
2018-08-01T01:06:04.138Z,69.41
2018-08-01T01:08:32.992Z,69.53
2018-08-01T01:11:01.881Z,70.07
2018-08-01T01:13:30.631Z,70.31
2018-08-01T01:15:59.495Z,70.31
2018-08-01T01:18:28.248Z,70.83
2018-08-01T01:20:57.368Z,70.76
2018-08-01T01:23:26.119Z,70.63
2018-08-01T01:25:54.862Z,70.80
2018-08-01T01:28:23.720Z,70.98
2018-08-01T01:30:52.461Z,70.81
2018-08-01T01:33:21.278Z,71.22
2018-08-01T01:35:50.062Z,70.98
2018-08-01T01:38:18.977Z,71.53
2018-08-01T01:40:47.737Z,71.72
2018-08-01T01:43:16.510Z,71.91
2018-08-01T01:45:45.274Z,72.22
2018-08-01T01:48:14.048Z,72.18
2018-08-01T01:50:42.746Z,72.62
2018-08-01T01:53:11.910Z,72.78
2018-08-01T01:55:40.912Z,72.91
2018-08-01T01:58:09.645Z,73.54
2018-08-01T02:00:38.791Z,73.65
2018-08-01T02:03:07.590Z,74.11
2018-08-01T02:05:36.300Z,74.30
2018-08-01T02:08:05.210Z,74.84
2018-08-01T02:10:34.954Z,75.64
2018-08-01T02:13:04.744Z,76.30
2018-08-01T02:15:34.843Z,77.01
2018-08-01T02:18:03.809Z,76.82
2018-08-01T02:20:32.864Z,76.72
2018-08-01T02:23:02.028Z,76.73
2018-08-01T02:25:31.299Z,76.87
2018-08-01T02:28:00.069Z,76.81
2018-08-01T02:30:28.883Z,76.55
2018-08-01T02:32:57.637Z,76.75
2018-08-01T02:35:26.395Z,76.76
2018-08-01T02:37:55.099Z,76.82
2018-08-01T02:40:23.806Z,76.77
2018-08-01T02:42:52.544Z,76.50
2018-08-01T02:45:21.285Z,76.78
2018-08-01T02:47:50.020Z,76.93
2018-08-01T02:50:18.755Z,77.24
2018-08-01T02:52:47.555Z,77.13
2018-08-01T02:55:16.403Z,76.93
2018-08-01T02:57:45.331Z,76.74
2018-08-01T03:00:14.061Z,76.42
2018-08-01T03:02:42.828Z,76.51
2018-08-01T03:05:11.610Z,76.94
2018-08-01T03:07:40.447Z,76.97
2018-08-01T03:10:10.471Z,77.26
2018-08-01T03:12:40.003Z,77.32
2018-08-01T03:15:08.758Z,77.38
2018-08-01T03:17:37.936Z,77.45
2018-08-01T03:20:07.109Z,77.48
2018-08-01T03:22:36.005Z,77.85
2018-08-01T03:25:04.667Z,77.82
2018-08-01T03:27:33.479Z,77.55
2018-08-01T03:30:02.356Z,78.37
2018-08-01T03:32:31.132Z,78.24
2018-08-01T03:34:59.876Z,77.54
2018-08-01T03:37:28.684Z,77.44
2018-08-01T03:39:57.413Z,77.00
2018-08-01T03:42:26.103Z,76.53
2018-08-01T03:44:54.881Z,76.60
2018-08-01T03:47:30.264Z,76.54
2018-08-01T03:49:58.992Z,76.13
2018-08-01T03:52:27.763Z,76.12
2018-08-01T03:54:56.580Z,76.26
2018-08-01T03:57:25.313Z,75.89
2018-08-01T03:59:54.197Z,76.15
2018-08-01T04:02:22.964Z,75.81
2018-08-01T04:04:51.653Z,75.77
2018-08-01T04:07:20.400Z,76.07
2018-08-01T04:09:49.102Z,76.37
2018-08-01T04:12:17.817Z,76.52
2018-08-01T04:14:46.599Z,77.00
2018-08-01T04:17:15.403Z,77.47
2018-08-01T04:19:45.110Z,77.66
2018-08-01T04:22:14.652Z,77.94
2018-08-01T04:24:44.006Z,78.19
2018-08-01T04:27:12.826Z,78.80
2018-08-01T04:29:41.655Z,79.21
2018-08-01T04:32:10.447Z,79.23
2018-08-01T04:34:39.236Z,79.65
2018-08-01T04:37:08.021Z,79.38
2018-08-01T04:39:36.800Z,79.13
2018-08-01T04:42:05.631Z,79.31
2018-08-01T04:44:34.287Z,78.94
2018-08-01T04:47:03.635Z,79.12
2018-08-01T04:49:33.668Z,78.84
2018-08-01T04:52:04.164Z,78.43
2018-08-01T04:54:34.572Z,77.93
2018-08-01T04:57:03.365Z,77.64
2018-08-01T04:59:32.163Z,76.92
2018-08-01T05:02:00.953Z,76.15
2018-08-01T05:04:29.766Z,76.37
2018-08-01T05:06:58.628Z,76.45
2018-08-01T05:09:27.372Z,76.54
2018-08-01T05:11:56.164Z,76.53
2018-08-01T05:14:24.893Z,76.63
2018-08-01T05:16:53.709Z,76.39
2018-08-01T05:19:22.496Z,75.84
2018-08-01T05:21:54.076Z,75.94
2018-08-01T05:24:23.177Z,75.73
2018-08-01T05:26:51.927Z,75.61
2018-08-01T05:29:20.641Z,75.89
2018-08-01T05:31:49.369Z,75.94
2018-08-01T05:34:18.168Z,76.12
2018-08-01T05:36:46.876Z,76.12
2018-08-01T05:39:15.743Z,75.91
2018-08-01T05:41:44.489Z,76.28
2018-08-01T05:44:13.444Z,76.46
2018-08-01T05:46:42.184Z,76.39
2018-08-01T05:49:11.714Z,76.84
2018-08-01T05:51:41.030Z,77.10
2018-08-01T05:54:09.929Z,77.25
2018-08-01T05:56:39.493Z,77.13
2018-08-01T05:59:08.687Z,77.35
2018-08-01T06:01:38.110Z,77.95
2018-08-01T06:04:06.814Z,77.78
2018-08-01T06:06:35.800Z,77.85
2018-08-01T06:09:06.784Z,77.71
2018-08-01T06:11:35.799Z,77.80
2018-08-01T06:14:04.671Z,77.77
2018-08-01T06:16:33.535Z,77.81
2018-08-01T06:19:02.376Z,77.78
2018-08-01T06:21:31.143Z,77.10
2018-08-01T06:23:59.882Z,77.09
2018-08-01T06:26:28.583Z,76.65
2018-08-01T06:28:57.397Z,76.49
2018-08-01T06:31:26.084Z,76.04
2018-08-01T06:33:54.872Z,75.57
2018-08-01T06:36:23.761Z,75.71
2018-08-01T06:38:53.246Z,74.81
2018-08-01T06:41:22.157Z,75.53
2018-08-01T06:43:51.444Z,76.15
2018-08-01T06:46:20.323Z,75.65
2018-08-01T06:48:49.235Z,76.90
2018-08-01T06:51:18.090Z,76.71
2018-08-01T06:53:46.779Z,75.51
2018-08-01T06:56:15.838Z,74.03
2018-08-01T06:58:44.539Z,73.02
2018-08-01T07:01:13.353Z,72.04
2018-08-01T07:03:42.054Z,71.37
2018-08-01T07:06:11.165Z,69.78
2018-08-01T07:08:40.336Z,68.89
2018-08-01T07:11:09.361Z,68.96
2018-08-01T07:13:38.084Z,68.52
2018-08-01T07:16:07.309Z,69.53
2018-08-01T07:18:36.032Z,69.33
2018-08-01T07:21:04.900Z,69.05
2018-08-01T07:23:33.632Z,68.13
2018-08-01T07:26:02.723Z,67.38
2018-08-01T07:28:31.471Z,67.50
2018-08-01T07:31:00.216Z,67.10
2018-08-01T07:33:28.998Z,66.75
2018-08-01T07:35:57.698Z,66.41
2018-08-01T07:38:26.750Z,65.60
2018-08-01T07:40:55.474Z,67.98
2018-08-01T07:43:24.564Z,67.64
2018-08-01T07:45:53.677Z,67.51
2018-08-01T07:48:22.413Z,66.57
2018-08-01T07:50:51.857Z,66.39
2018-08-01T07:53:20.528Z,66.35
2018-08-01T07:55:49.320Z,64.05
2018-08-01T07:58:18.020Z,63.32
2018-08-01T08:00:46.824Z,62.19
2018-08-01T08:03:15.592Z,61.48
2018-08-01T08:05:44.654Z,61.11
2018-08-01T08:08:14.457Z,61.68
2018-08-01T08:10:43.168Z,63.74
2018-08-01T08:13:12.417Z,63.35
2018-08-01T08:15:41.144Z,64.10
2018-08-01T08:18:09.913Z,65.22
2018-08-01T08:20:38.568Z,65.70
2018-08-01T08:23:07.712Z,66.12
2018-08-01T08:25:36.556Z,65.83
2018-08-01T08:28:05.432Z,65.89
2018-08-01T08:30:34.345Z,65.19
2018-08-01T08:33:03.224Z,64.96
2018-08-01T08:35:32.156Z,65.70
2018-08-01T08:38:00.881Z,64.52
2018-08-01T08:40:29.936Z,62.94
2018-08-01T08:42:58.801Z,62.32
2018-08-01T08:45:27.752Z,63.42
2018-08-01T08:47:56.760Z,64.25
2018-08-01T08:50:25.648Z,65.22
2018-08-01T08:52:54.662Z,65.32
2018-08-01T08:55:23.484Z,65.82
2018-08-01T08:57:52.400Z,66.50
2018-08-01T09:00:21.288Z,66.78
2018-08-01T09:02:49.948Z,66.33
2018-08-01T09:05:18.621Z,65.70
2018-08-01T09:07:47.502Z,65.53
2018-08-01T09:10:20.706Z,66.15
2018-08-01T09:12:49.476Z,66.20
2018-08-01T09:15:18.196Z,67.48
2018-08-01T09:17:46.954Z,67.09
2018-08-01T09:20:17.146Z,66.50
2018-08-01T09:22:45.934Z,65.93
2018-08-01T09:25:14.639Z,66.02
2018-08-01T09:27:43.505Z,64.55
2018-08-01T09:30:12.587Z,63.82
2018-08-01T09:32:41.295Z,62.84
2018-08-01T09:35:09.983Z,63.60
2018-08-01T09:37:38.760Z,63.95
2018-08-01T09:40:07.504Z,64.86
2018-08-01T09:42:40.196Z,65.36
2018-08-01T09:45:10.897Z,64.80
2018-08-01T09:47:39.772Z,65.45
2018-08-01T09:50:10.227Z,65.11
2018-08-01T09:52:39.973Z,64.32
2018-08-01T09:55:09.741Z,63.63
2018-08-01T09:57:38.056Z,61.77
2018-08-01T10:00:09.164Z,60.82
2018-08-01T10:02:47.852Z,58.80
2018-08-01T10:05:17.181Z,58.33
2018-08-01T10:07:45.872Z,58.33
2018-08-01T10:10:14.938Z,58.41
2018-08-01T10:12:43.724Z,58.72
2018-08-01T10:15:12.675Z,56.15
2018-08-01T10:17:41.725Z,53.67
2018-08-01T10:20:10.654Z,52.51
2018-08-01T10:22:41.122Z,51.20
2018-08-01T10:25:10.874Z,50.45
2018-08-01T10:27:40.572Z,50.22
2018-08-01T10:30:10.400Z,50.31
2018-08-01T10:32:39.809Z,49.70
2018-08-01T10:35:08.650Z,47.84
2018-08-01T10:37:37.443Z,46.52
2018-08-01T10:40:06.105Z,46.65
2018-08-01T10:42:35.071Z,45.75
2018-08-01T10:45:04.336Z,44.59
2018-08-01T10:47:33.132Z,44.57
2018-08-01T10:50:01.880Z,45.88
2018-08-01T10:52:30.639Z,47.82
2018-08-01T10:54:59.849Z,48.29
2018-08-01T10:57:28.632Z,48.28
2018-08-01T10:59:57.514Z,47.98
2018-08-01T11:02:26.256Z,48.58
2018-08-01T11:04:54.979Z,48.92
2018-08-01T11:07:23.748Z,49.06
2018-08-01T11:09:52.614Z,48.97
2018-08-01T11:12:21.759Z,47.83
2018-08-01T11:14:50.625Z,46.77
2018-08-01T11:17:19.557Z,48.37
2018-08-01T11:19:50.675Z,48.18
2018-08-01T11:22:19.548Z,47.87
2018-08-01T11:24:48.313Z,47.02
2018-08-01T11:27:17.034Z,45.99
2018-08-01T11:29:45.747Z,45.88
2018-08-01T11:32:15.336Z,44.59
2018-08-01T11:34:44.104Z,43.39
2018-08-01T11:37:12.905Z,44.05
2018-08-01T11:39:41.611Z,43.92
2018-08-01T11:42:10.317Z,42.47
2018-08-01T11:44:39.042Z,43.43
2018-08-01T11:47:07.776Z,42.52
2018-08-01T11:49:36.457Z,42.15
2018-08-01T11:52:05.191Z,42.55
2018-08-01T11:54:33.918Z,42.58
2018-08-01T11:57:03.720Z,41.80
2018-08-01T11:59:32.475Z,41.50
2018-08-01T12:02:01.239Z,42.31
2018-08-01T12:04:29.941Z,43.08
2018-08-01T12:06:58.729Z,42.77
2018-08-01T12:09:27.492Z,42.73
2018-08-01T12:11:56.217Z,43.50
2018-08-01T12:14:25.240Z,41.86
2018-08-01T12:16:54.048Z,42.54
2018-08-01T12:19:22.844Z,40.57
2018-08-01T12:21:51.606Z,38.73
2018-08-01T12:24:20.366Z,39.78
2018-08-01T12:26:49.184Z,36.16
2018-08-01T12:29:17.957Z,39.76
2018-08-01T12:31:46.694Z,38.72
2018-08-01T12:34:15.616Z,36.08
2018-08-01T12:36:44.330Z,37.18
2018-08-01T12:39:13.340Z,36.83
2018-08-01T12:41:42.447Z,38.42
2018-08-01T12:44:11.280Z,38.58
2018-08-01T12:46:40.170Z,39.26
2018-08-01T12:49:09.260Z,38.35
2018-08-01T12:51:38.226Z,40.26
2018-08-01T12:54:07.074Z,39.33
2018-08-01T12:56:35.933Z,39.97
2018-08-01T12:59:04.662Z,39.28
2018-08-01T13:01:33.830Z,40.19
2018-08-01T13:04:02.669Z,41.04
2018-08-01T13:06:31.713Z,41.58
2018-08-01T13:09:00.682Z,42.12
2018-08-01T13:11:29.714Z,42.05
2018-08-01T13:13:58.754Z,42.27
2018-08-01T13:16:27.504Z,41.89
2018-08-01T13:18:56.425Z,40.67
2018-08-01T13:21:25.172Z,40.74
2018-08-01T13:23:53.845Z,40.05
2018-08-01T13:26:22.630Z,41.20
2018-08-01T13:28:51.426Z,40.70
2018-08-01T13:31:20.108Z,39.48
2018-08-01T13:33:48.810Z,40.73
2018-08-01T13:36:17.584Z,41.47
2018-08-01T13:38:46.358Z,40.57
2018-08-01T13:41:15.158Z,41.38
2018-08-01T13:43:43.978Z,42.43
2018-08-01T13:46:12.972Z,42.46
2018-08-01T13:48:42.240Z,43.00
2018-08-01T13:51:11.075Z,43.05
2018-08-01T13:53:39.812Z,43.60
2018-08-01T13:56:08.617Z,43.76
2018-08-01T13:58:37.454Z,44.08
2018-08-01T14:01:06.209Z,43.43
2018-08-01T14:03:34.975Z,44.11
2018-08-01T14:06:03.766Z,43.11
2018-08-01T14:08:32.601Z,42.09
2018-08-01T14:11:01.330Z,43.43
2018-08-01T14:13:30.042Z,43.04
2018-08-01T14:15:58.741Z,42.79
2018-08-01T14:18:27.509Z,46.32
2018-08-01T14:20:56.463Z,47.33
2018-08-01T14:23:25.138Z,47.27
2018-08-01T14:25:54.642Z,46.08
2018-08-01T14:28:23.544Z,47.85
2018-08-01T14:30:52.212Z,47.96
2018-08-01T14:33:20.909Z,49.67
2018-08-01T14:35:49.591Z,49.67
2018-08-01T14:38:18.368Z,50.03
2018-08-01T14:40:47.028Z,49.11
2018-08-01T14:43:15.706Z,49.47
2018-08-01T14:45:44.361Z,49.36
2018-08-01T14:48:13.284Z,49.00
2018-08-01T14:50:42.280Z,48.26
2018-08-01T14:53:11.085Z,47.26
2018-08-01T14:55:39.826Z,47.34
2018-08-01T14:58:08.594Z,47.17
2018-08-01T15:00:37.241Z,46.66
2018-08-01T15:03:05.987Z,46.94
2018-08-01T15:05:34.682Z,48.15
2018-08-01T15:08:03.335Z,48.77
2018-08-01T15:10:32.023Z,47.53
2018-08-01T15:13:00.962Z,47.95
2018-08-01T15:15:29.662Z,48.62
2018-08-01T15:17:58.419Z,48.11
2018-08-01T15:20:27.360Z,48.39
2018-08-01T15:22:56.117Z,48.97
2018-08-01T15:25:24.858Z,48.39
2018-08-01T15:27:53.494Z,47.96
2018-08-01T15:30:22.217Z,47.98
2018-08-01T15:32:50.940Z,48.29
2018-08-01T15:35:19.629Z,48.67
2018-08-01T15:37:48.367Z,47.81
2018-08-01T15:40:17.178Z,49.25
2018-08-01T15:42:45.955Z,49.61
2018-08-01T15:45:14.665Z,48.81
2018-08-01T15:47:43.488Z,49.36
2018-08-01T15:50:12.315Z,49.89
2018-08-01T15:52:41.049Z,49.51
2018-08-01T15:55:09.742Z,50.16
2018-08-01T15:57:38.699Z,50.98
2018-08-01T16:00:08.432Z,50.74
2018-08-01T16:02:37.328Z,50.09
2018-08-01T16:05:07.237Z,49.58
2018-08-01T16:07:35.988Z,50.53
2018-08-01T16:10:04.809Z,50.77
2018-08-01T16:12:33.556Z,50.26
2018-08-01T16:15:02.315Z,50.96
2018-08-01T16:17:30.976Z,50.78
2018-08-01T16:19:59.716Z,50.42
2018-08-01T16:22:28.728Z,50.10
2018-08-01T16:24:58.139Z,51.01
2018-08-01T16:27:26.890Z,51.01
2018-08-01T16:29:55.592Z,50.55
2018-08-01T16:32:24.360Z,50.52
2018-08-01T16:34:53.168Z,51.03
2018-08-01T16:37:21.912Z,51.51
2018-08-01T16:39:50.617Z,51.35
2018-08-01T16:42:19.480Z,51.54
2018-08-01T16:45:01.471Z,51.81
2018-08-01T16:47:30.959Z,52.65
2018-08-01T16:49:59.643Z,52.18
2018-08-01T16:52:28.614Z,52.29
2018-08-01T16:54:57.303Z,51.57
2018-08-01T16:57:26.121Z,51.43
2018-08-01T16:59:54.821Z,50.99
2018-08-01T17:02:23.521Z,50.61
2018-08-01T17:04:52.242Z,50.64
2018-08-01T17:07:20.998Z,50.60
2018-08-01T17:09:49.816Z,50.09
2018-08-01T17:12:18.508Z,50.73
2018-08-01T17:14:47.204Z,50.64
2018-08-01T17:17:15.963Z,50.50
2018-08-01T17:19:44.743Z,51.00
2018-08-01T17:22:13.461Z,51.05
2018-08-01T17:24:42.187Z,50.55
2018-08-01T17:27:10.927Z,49.52
2018-08-01T17:29:39.696Z,49.67
2018-08-01T17:32:08.409Z,49.54
2018-08-01T17:34:37.405Z,48.58
2018-08-01T17:37:06.210Z,48.17
2018-08-01T17:39:35.081Z,47.78
2018-08-01T17:42:04.121Z,48.71
2018-08-01T17:44:33.082Z,48.52
2018-08-01T17:47:01.921Z,47.49
2018-08-01T17:49:30.785Z,48.55
2018-08-01T17:51:59.891Z,48.60
2018-08-01T17:54:29.061Z,48.80
2018-08-01T17:56:57.761Z,49.39
2018-08-01T17:59:26.564Z,49.35
2018-08-01T18:01:55.313Z,49.15
2018-08-01T18:04:24.055Z,48.96
2018-08-01T18:06:52.796Z,48.35
2018-08-01T18:09:21.679Z,47.23
2018-08-01T18:11:50.503Z,46.81
2018-08-01T18:14:19.463Z,46.04
2018-08-01T18:16:48.457Z,45.40
2018-08-01T18:19:17.223Z,45.01
2018-08-01T18:21:46.016Z,44.55
2018-08-01T18:24:15.129Z,44.05
2018-08-01T18:26:44.056Z,45.23
2018-08-01T18:29:12.873Z,44.37
2018-08-01T18:31:41.809Z,44.04
2018-08-01T18:34:11.039Z,43.71
2018-08-01T18:36:40.157Z,44.05
2018-08-01T18:39:10.409Z,44.72
2018-08-01T18:41:39.597Z,45.30
2018-08-01T18:44:08.805Z,46.23
2018-08-01T18:46:37.953Z,46.44
2018-08-01T18:49:06.766Z,46.67
2018-08-01T18:51:35.562Z,46.85
2018-08-01T18:54:04.712Z,46.40
2018-08-01T18:56:33.405Z,46.69
2018-08-01T18:59:02.094Z,46.95
2018-08-01T19:01:31.069Z,47.46
2018-08-01T19:03:59.831Z,47.12
2018-08-01T19:06:28.924Z,47.14
2018-08-01T19:08:57.675Z,48.05
2018-08-01T19:11:26.609Z,48.23
2018-08-01T19:13:55.559Z,48.66
2018-08-01T19:16:24.524Z,49.45
2018-08-01T19:18:53.481Z,50.33
2018-08-01T19:21:22.229Z,51.41
2018-08-01T19:23:51.373Z,53.03
2018-08-01T19:26:20.438Z,53.73
2018-08-01T19:28:50.351Z,54.26
2018-08-01T19:31:19.159Z,54.32
2018-08-01T19:33:48.034Z,54.91
2018-08-01T19:36:16.783Z,55.26
2018-08-01T19:38:45.704Z,55.50
2018-08-01T19:41:15.008Z,55.56
2018-08-01T19:43:43.862Z,55.80
2018-08-01T19:46:12.621Z,55.49
2018-08-01T19:48:41.776Z,55.73
2018-08-01T19:51:11.225Z,55.50
2018-08-01T19:53:40.386Z,55.32
2018-08-01T19:56:09.394Z,55.39
2018-08-01T19:58:38.120Z,54.83
2018-08-01T20:01:07.808Z,54.58
2018-08-01T20:03:36.851Z,54.88
2018-08-01T20:06:06.294Z,55.29
2018-08-01T20:08:35.160Z,55.18
2018-08-01T20:11:05.927Z,55.29
2018-08-01T20:13:34.942Z,55.68
2018-08-01T20:16:04.754Z,56.12
2018-08-01T20:18:33.673Z,56.45
2018-08-01T20:21:02.560Z,56.33
2018-08-01T20:23:31.836Z,55.06
2018-08-01T20:26:00.904Z,54.73
2018-08-01T20:28:29.822Z,54.33
2018-08-01T20:30:58.737Z,55.00
2018-08-01T20:33:27.814Z,55.97
2018-08-01T20:35:57.730Z,56.56
2018-08-01T20:38:26.881Z,56.98
2018-08-01T20:40:55.835Z,57.00
2018-08-01T20:43:24.642Z,56.79
2018-08-01T20:45:59.176Z,57.26
2018-08-01T20:48:28.760Z,57.38
2018-08-01T20:50:57.668Z,57.72
2018-08-01T20:53:26.558Z,56.97
2018-08-01T20:55:55.190Z,57.19
2018-08-01T20:58:25.172Z,57.11
2018-08-01T21:00:54.074Z,57.10
2018-08-01T21:03:23.281Z,57.34
2018-08-01T21:05:52.102Z,57.81
2018-08-01T21:08:20.842Z,57.88
2018-08-01T21:10:49.678Z,57.58
2018-08-01T21:13:18.464Z,57.86
2018-08-01T21:15:47.375Z,57.85
2018-08-01T21:18:16.756Z,58.56
2018-08-01T21:20:45.642Z,58.74
2018-08-01T21:23:14.569Z,59.30
2018-08-01T21:25:43.373Z,59.26
2018-08-01T21:28:12.348Z,59.36
2018-08-01T21:30:41.232Z,59.31
2018-08-01T21:33:10.123Z,59.69
2018-08-01T21:35:39.323Z,59.67
2018-08-01T21:38:08.026Z,60.07
2018-08-01T21:40:36.798Z,60.29
2018-08-01T21:43:07.612Z,60.39
2018-08-01T21:45:36.552Z,60.97
2018-08-01T21:48:05.279Z,60.88
2018-08-01T21:50:34.042Z,61.03
2018-08-01T21:53:03.036Z,61.07
2018-08-01T21:55:32.531Z,61.14
2018-08-01T21:58:01.359Z,61.62
2018-08-01T22:00:34.299Z,61.60
2018-08-01T22:03:03.726Z,61.42
2018-08-01T22:05:32.624Z,61.87
2018-08-01T22:08:01.428Z,62.14
2018-08-01T22:10:30.180Z,62.02
2018-08-01T22:12:58.935Z,62.29
2018-08-01T22:15:27.756Z,62.52
2018-08-01T22:17:56.736Z,62.79
2018-08-01T22:20:25.493Z,62.80
2018-08-01T22:22:54.239Z,62.93
2018-08-01T22:25:23.539Z,63.07
2018-08-01T22:27:52.316Z,63.30
2018-08-01T22:30:21.129Z,63.03
2018-08-01T22:32:49.888Z,62.49
2018-08-01T22:35:18.685Z,63.23
2018-08-01T22:37:47.453Z,63.54
2018-08-01T22:40:16.179Z,63.63
2018-08-01T22:42:45.151Z,63.94
2018-08-01T22:45:13.866Z,64.03
2018-08-01T22:47:42.588Z,64.47
2018-08-01T22:50:11.276Z,65.17
2018-08-01T22:52:40.235Z,65.16
2018-08-01T22:55:09.103Z,64.51
2018-08-01T22:57:37.822Z,64.58
2018-08-01T23:00:06.981Z,65.16
2018-08-01T23:02:35.723Z,64.72
2018-08-01T23:05:04.619Z,65.06
2018-08-01T23:07:33.371Z,65.90
2018-08-01T23:10:02.175Z,66.34
2018-08-01T23:12:30.984Z,66.50
2018-08-01T23:14:59.738Z,66.67
2018-08-01T23:17:28.497Z,66.69
2018-08-01T23:19:57.265Z,67.27
2018-08-01T23:22:25.997Z,67.16
2018-08-01T23:24:55.127Z,67.22
2018-08-01T23:27:23.882Z,67.34
2018-08-01T23:29:52.709Z,66.86
2018-08-01T23:32:21.624Z,66.70
2018-08-01T23:34:50.511Z,67.63
2018-08-01T23:37:19.250Z,68.01
2018-08-01T23:39:48.025Z,68.18
2018-08-01T23:42:16.806Z,67.45
2018-08-01T23:44:45.508Z,67.46
2018-08-01T23:47:14.250Z,67.63
2018-08-01T23:49:43.006Z,67.12
2018-08-01T23:52:11.816Z,67.69
2018-08-01T23:54:40.608Z,67.69
2018-08-01T23:57:09.393Z,67.96
2018-08-01T23:59:38.110Z,68.08
